Time;durP1;ratioP1;P1;durP2;ratioP2;P2;SDS_P1;SDS_P2;PMS_P1;PMS_P2;Temp;Humidity;BMP_temperature;BMP_pressure;BME280_temperature;BME280_humidity;BME280_pressure;Samples;Min_cycle;Max_cycle;Signal;HPM_P1;HPM_P2
2021/08/21 00:01:04;;;;;;;6.30;5.30;;;18.90;93.30;;;;;;5054887;28;20367;-81
2021/08/21 00:03:30;;;;;;;6.63;5.30;;;18.90;93.40;;;;;;5045930;28;20078;-81
2021/08/21 00:05:56;;;;;;;6.18;4.72;;;18.80;93.30;;;;;;5043206;28;20020;-81
2021/08/21 00:08:21;;;;;;;6.25;4.93;;;18.80;93.30;;;;;;5033601;28;20113;-80
2021/08/21 00:10:47;;;;;;;7.40;4.90;;;18.80;93.30;;;;;;5020721;28;20067;-81
2021/08/21 00:13:13;;;;;;;3.53;2.70;;;18.70;93.20;;;;;;5004105;28;20021;-80
2021/08/21 00:15:38;;;;;;;3.50;2.25;;;18.70;93.20;;;;;;5036971;28;20044;-81
2021/08/21 00:18:04;;;;;;;2.20;2.00;;;18.60;93.30;;;;;;5009479;28;20542;-81
2021/08/21 00:20:30;;;;;;;3.03;2.03;;;18.60;93.30;;;;;;5034812;28;20029;-81
2021/08/21 00:22:56;;;;;;;3.00;2.30;;;18.60;93.40;;;;;;5003264;28;20029;-81
2021/08/21 00:25:21;;;;;;;2.42;1.83;;;18.50;93.30;;;;;;5041157;28;20375;-81
2021/08/21 00:27:47;;;;;;;2.60;1.92;;;18.50;93.30;;;;;;5029752;28;20029;-81
2021/08/21 00:30:14;;;;;;;1.70;1.42;;;18.50;93.40;;;;;;5016767;28;20041;-81
2021/08/21 00:32:40;;;;;;;2.72;1.60;;;18.50;93.60;;;;;;5036628;28;20471;-81
2021/08/21 00:35:07;;;;;;;1.95;1.50;;;18.40;93.60;;;;;;5036662;28;20056;-81
2021/08/21 00:37:33;;;;;;;1.75;1.63;;;18.40;93.60;;;;;;5033995;28;20025;-81
2021/08/21 00:39:58;;;;;;;3.95;1.88;;;18.40;93.70;;;;;;5025657;28;20043;-81
2021/08/21 00:42:24;;;;;;;2.67;1.90;;;18.40;93.60;;;;;;5017102;28;20390;-81
2021/08/21 00:44:50;;;;;;;3.47;2.80;;;18.40;93.80;;;;;;5037639;28;20099;-81
2021/08/21 00:47:18;;;;;;;6.43;4.57;;;18.30;93.90;;;;;;5074250;28;20028;-81
2021/08/21 00:49:47;;;;;;;7.15;5.10;;;18.30;94.00;;;;;;5054225;28;20060;-81
2021/08/21 00:52:16;;;;;;;8.82;5.38;;;18.30;94.00;;;;;;5041471;28;20393;-82
2021/08/21 00:54:42;;;;;;;6.53;5.10;;;18.30;93.90;;;;;;5048696;28;20076;-82
2021/08/21 00:57:08;;;;;;;5.65;4.57;;;18.30;94.00;;;;;;5073050;28;20029;-81
2021/08/21 00:59:35;;;;;;;6.35;4.75;;;18.30;94.00;;;;;;5086495;28;20107;-81
2021/08/21 01:02:02;;;;;;;7.45;4.60;;;18.30;93.90;;;;;;5075553;28;20071;-82
2021/08/21 01:04:30;;;;;;;6.55;4.65;;;18.20;93.90;;;;;;5036060;28;20474;-82
2021/08/21 01:06:55;;;;;;;7.40;4.80;;;18.20;93.80;;;;;;5070545;28;20042;-82
2021/08/21 01:09:21;;;;;;;5.55;4.38;;;18.20;93.80;;;;;;5030719;28;20123;-82
2021/08/21 01:11:47;;;;;;;5.22;4.32;;;18.10;93.80;;;;;;5031427;28;20028;-82
2021/08/21 01:14:13;;;;;;;5.47;3.95;;;18.10;93.80;;;;;;5056122;28;20025;-81
2021/08/21 01:16:39;;;;;;;5.68;4.32;;;18.10;93.80;;;;;;5055869;28;20017;-81
2021/08/21 01:19:06;;;;;;;5.70;4.60;;;18.10;93.90;;;;;;5031862;28;20029;-81
2021/08/21 01:21:32;;;;;;;8.30;5.40;;;18.10;93.90;;;;;;5046679;28;20056;-81
2021/08/21 01:23:57;;;;;;;7.25;4.80;;;18.00;93.90;;;;;;5039229;28;20495;-81
2021/08/21 01:26:23;;;;;;;6.80;4.57;;;18.00;94.00;;;;;;5048070;28;20935;-81
2021/08/21 01:28:49;;;;;;;7.38;5.63;;;18.00;93.90;;;;;;5043633;28;20123;-81
2021/08/21 01:31:15;;;;;;;6.55;5.32;;;18.00;94.10;;;;;;5072215;28;20024;-81
2021/08/21 01:33:41;;;;;;;7.18;5.80;;;18.00;94.10;;;;;;5073442;28;20021;-81
2021/08/21 01:36:07;;;;;;;6.68;5.38;;;17.90;93.90;;;;;;5051290;28;20036;-81
2021/08/21 01:38:33;;;;;;;5.50;4.40;;;17.90;93.90;;;;;;5062070;28;20051;-81
2021/08/21 01:40:58;;;;;;;5.22;4.22;;;17.90;93.90;;;;;;5088700;28;20029;-81
2021/08/21 01:43:24;;;;;;;4.78;3.40;;;17.80;94.00;;;;;;5073394;28;20036;-81
2021/08/21 01:45:50;;;;;;;5.00;3.45;;;17.80;94.10;;;;;;5069345;28;20090;-81
2021/08/21 01:48:19;;;;;;;4.80;3.40;;;17.80;94.10;;;;;;5049344;28;20025;-81
2021/08/21 01:50:46;;;;;;;5.20;3.42;;;17.80;94.10;;;;;;5071078;28;20381;-81
2021/08/21 01:53:18;;;;;;;2.72;2.17;;;17.70;94.00;;;;;;5069053;28;20017;-81
2021/08/21 01:55:46;;;;;;;1.85;1.20;;;17.70;93.90;;;;;;5055426;28;20028;-81
2021/08/21 01:58:21;;;;;;;4.03;1.85;;;17.60;93.70;;;;;;5068685;28;20013;-81
2021/08/21 02:00:47;;;;;;;3.58;3.00;;;17.60;93.60;;;;;;5027842;28;20029;-81
2021/08/21 02:06:35;;;;;;;4.63;3.63;;;17.40;93.70;;;;;;5077269;28;20024;-82
2021/08/21 02:09:00;;;;;;;4.95;4.10;;;17.40;94.00;;;;;;5037832;28;20029;-81
2021/08/21 02:11:26;;;;;;;5.35;4.35;;;17.30;94.20;;;;;;5031944;28;20021;-81
2021/08/21 02:13:52;;;;;;;5.85;4.43;;;17.30;94.40;;;;;;5030229;28;20025;-81
2021/08/21 02:16:18;;;;;;;5.28;4.22;;;17.30;94.50;;;;;;5037965;28;20038;-81
2021/08/21 02:18:44;;;;;;;6.28;4.82;;;17.30;94.60;;;;;;5038028;28;20021;-81
2021/08/21 02:21:10;;;;;;;6.18;4.75;;;17.30;94.70;;;;;;5038111;28;20496;-81
2021/08/21 02:23:36;;;;;;;5.88;4.70;;;17.20;94.50;;;;;;5037502;28;20506;-81
2021/08/21 02:26:02;;;;;;;6.60;5.38;;;17.20;94.50;;;;;;5038005;28;20425;-81
2021/08/21 02:28:27;;;;;;;7.13;5.20;;;17.20;94.50;;;;;;5054662;28;20462;-81
2021/08/21 02:30:53;;;;;;;7.47;5.55;;;17.20;94.70;;;;;;5052007;28;20032;-81
2021/08/21 02:33:19;;;;;;;8.13;5.97;;;17.20;94.80;;;;;;5045416;28;20382;-82
2021/08/21 02:35:45;;;;;;;8.27;6.30;;;17.10;94.80;;;;;;5037714;28;20016;-81
2021/08/21 02:38:11;;;;;;;8.48;6.10;;;17.20;95.00;;;;;;5037954;28;20021;-82
2021/08/21 02:40:37;;;;;;;7.70;6.20;;;17.10;95.00;;;;;;5032215;28;20059;-82
2021/08/21 02:43:03;;;;;;;9.75;6.57;;;17.20;95.00;;;;;;5042962;28;20605;-81
2021/08/21 02:45:29;;;;;;;8.18;6.35;;;17.20;95.10;;;;;;5051498;28;20035;-81
2021/08/21 02:47:55;;;;;;;8.63;6.60;;;17.10;95.00;;;;;;5054281;28;20024;-81
2021/08/21 02:50:20;;;;;;;8.13;6.25;;;17.20;95.00;;;;;;5037595;28;20036;-81
2021/08/21 02:52:49;;;;;;;7.88;6.32;;;17.10;95.00;;;;;;5054051;28;20575;-81
2021/08/21 02:55:14;;;;;;;9.15;5.95;;;17.10;95.10;;;;;;5073649;28;20020;-81
2021/08/21 02:57:40;;;;;;;7.20;5.63;;;17.20;95.10;;;;;;5071947;28;20024;-81
2021/08/21 03:00:06;;;;;;;8.05;6.32;;;17.10;95.00;;;;;;5034173;28;20071;-81
2021/08/21 03:02:32;;;;;;;7.07;5.63;;;17.10;95.00;;;;;;5047497;28;20040;-81
2021/08/21 03:04:57;;;;;;;7.50;5.10;;;17.10;94.90;;;;;;5045147;28;20025;-81
2021/08/21 03:07:23;;;;;;;6.70;4.60;;;17.10;95.00;;;;;;5041416;28;20072;-81
2021/08/21 03:09:49;;;;;;;4.63;3.70;;;17.00;95.00;;;;;;5043952;28;20037;-81
2021/08/21 03:12:14;;;;;;;5.57;4.28;;;17.00;95.00;;;;;;5038019;28;20029;-82
2021/08/21 03:14:40;;;;;;;5.93;4.47;;;17.10;95.00;;;;;;5058118;28;20469;-81
2021/08/21 03:17:10;;;;;;;7.70;4.22;;;17.00;94.90;;;;;;5041313;28;20067;-81
2021/08/21 03:19:35;;;;;;;6.88;4.75;;;17.00;95.00;;;;;;5058047;28;20601;-81
2021/08/21 03:22:01;;;;;;;6.22;4.60;;;17.00;95.30;;;;;;5041054;28;20115;-81
2021/08/21 03:24:27;;;;;;;6.60;4.88;;;17.00;95.10;;;;;;5049756;28;20033;-81
2021/08/21 03:26:53;;;;;;;6.80;4.50;;;17.00;95.20;;;;;;5054137;28;20060;-81
2021/08/21 03:29:18;;;;;;;6.28;4.18;;;17.00;95.30;;;;;;5022901;28;20048;-81
2021/08/21 03:31:44;;;;;;;7.97;4.57;;;17.00;95.30;;;;;;5073154;28;20108;-81
2021/08/21 03:34:09;;;;;;;6.75;4.40;;;17.00;95.30;;;;;;5024158;28;20116;-81
2021/08/21 03:36:35;;;;;;;7.47;4.53;;;17.00;95.30;;;;;;5057563;28;20024;-81
2021/08/21 03:39:01;;;;;;;6.15;4.13;;;17.00;95.30;;;;;;5037371;28;20056;-81
2021/08/21 03:41:27;;;;;;;6.00;4.72;;;17.00;95.40;;;;;;5073073;28;20063;-81
2021/08/21 03:43:52;;;;;;;7.22;5.03;;;17.00;95.40;;;;;;5038203;28;20029;-82
2021/08/21 03:46:18;;;;;;;7.68;5.10;;;17.00;95.50;;;;;;5044644;28;20040;-81
2021/08/21 03:48:44;;;;;;;6.78;4.78;;;17.00;95.50;;;;;;5072534;28;20072;-81
2021/08/21 03:51:09;;;;;;;6.88;5.10;;;17.00;95.60;;;;;;5023862;28;20048;-81
2021/08/21 03:53:35;;;;;;;11.05;5.38;;;17.00;95.60;;;;;;5040404;28;20390;-81
2021/08/21 03:56:01;;;;;;;8.77;5.18;;;17.10;95.70;;;;;;5040377;28;20033;-82
2021/08/21 03:58:26;;;;;;;6.13;4.15;;;17.10;95.70;;;;;;5040416;28;20021;-81
2021/08/21 04:00:52;;;;;;;5.60;4.10;;;17.10;95.80;;;;;;5036770;28;20064;-81
2021/08/21 04:03:18;;;;;;;6.65;4.20;;;17.10;95.80;;;;;;5043287;28;20035;-81
2021/08/21 04:05:43;;;;;;;6.22;4.93;;;17.10;95.90;;;;;;5076945;28;20032;-81
2021/08/21 04:08:09;;;;;;;6.43;4.53;;;17.10;95.90;;;;;;5043451;28;20107;-81
2021/08/21 04:10:35;;;;;;;5.95;4.38;;;17.10;95.90;;;;;;5050155;28;20123;-81
2021/08/21 04:13:01;;;;;;;7.35;5.20;;;17.10;96.00;;;;;;5073730;28;20103;-82
2021/08/21 04:15:26;;;;;;;6.15;4.63;;;17.10;96.00;;;;;;5074472;28;20492;-81
2021/08/21 04:17:52;;;;;;;6.95;5.82;;;17.10;96.10;;;;;;5044561;28;20028;-81
2021/08/21 04:20:19;;;;;;;7.38;5.85;;;17.10;96.30;;;;;;5059267;28;20469;-82
2021/08/21 04:22:45;;;;;;;7.30;5.93;;;17.20;96.50;;;;;;5053325;28;20055;-81
2021/08/21 04:25:11;;;;;;;7.85;6.20;;;17.20;96.70;;;;;;5036908;28;20115;-81
2021/08/21 04:27:37;;;;;;;6.93;5.90;;;17.20;96.70;;;;;;5056446;28;20484;-81
2021/08/21 04:30:03;;;;;;;9.70;5.90;;;17.20;96.80;;;;;;5042266;28;20033;-81
2021/08/21 04:32:29;;;;;;;7.22;5.88;;;17.20;96.90;;;;;;5074222;28;20020;-81
2021/08/21 04:34:55;;;;;;;6.88;5.47;;;17.20;96.90;;;;;;5053260;28;20035;-81
2021/08/21 04:37:21;;;;;;;6.85;5.47;;;17.20;97.00;;;;;;5059792;28;20358;-81
2021/08/21 04:39:46;;;;;;;5.95;5.05;;;17.20;97.10;;;;;;5048086;28;20025;-81
2021/08/21 04:42:12;;;;;;;6.57;5.43;;;17.20;97.20;;;;;;5036094;28;20029;-81
2021/08/21 04:44:38;;;;;;;7.95;5.97;;;17.20;97.30;;;;;;5039609;28;20136;-81
2021/08/21 04:47:04;;;;;;;6.93;5.55;;;17.20;97.50;;;;;;5054971;28;20528;-81
2021/08/21 04:49:30;;;;;;;7.18;6.05;;;17.20;97.60;;;;;;5068643;28;20033;-81
2021/08/21 04:51:56;;;;;;;7.05;5.85;;;17.20;97.60;;;;;;5050750;23;20063;-82
2021/08/21 04:54:23;;;;;;;8.50;5.65;;;17.20;97.90;;;;;;5035896;28;20116;-81
2021/08/21 04:56:49;;;;;;;9.00;5.88;;;17.20;97.70;;;;;;5035961;28;20029;-82
2021/08/21 04:59:14;;;;;;;6.97;5.70;;;17.20;97.70;;;;;;5019853;28;20035;-82
2021/08/21 05:01:41;;;;;;;7.40;5.32;;;17.20;97.60;;;;;;5003001;28;20041;-81
2021/08/21 05:04:06;;;;;;;7.15;5.57;;;17.20;97.70;;;;;;5035591;28;20493;-81
2021/08/21 05:06:32;;;;;;;6.90;5.32;;;17.20;97.80;;;;;;5050446;28;20059;-81
2021/08/21 05:08:58;;;;;;;7.13;5.70;;;17.20;97.80;;;;;;5032421;28;20525;-81
2021/08/21 05:11:23;;;;;;;7.30;5.10;;;17.20;97.90;;;;;;5019400;28;20025;-81
2021/08/21 05:13:49;;;;;;;6.75;5.35;;;17.20;98.00;;;;;;5015727;28;20108;-81
2021/08/21 05:16:15;;;;;;;8.05;5.90;;;17.20;98.00;;;;;;5019615;28;20037;-81
2021/08/21 05:18:50;;;;;;;7.05;5.80;;;17.20;98.10;;;;;;5032188;28;20758;-82
2021/08/21 05:21:25;;;;;;;8.75;6.47;;;17.20;98.30;;;;;;5026975;28;20040;-82
2021/08/21 05:23:52;;;;;;;8.40;6.25;;;17.30;98.40;;;;;;5048198;28;20102;-81
2021/08/21 05:26:18;;;;;;;8.15;6.07;;;17.30;98.30;;;;;;5018561;28;20033;-81
2021/08/21 05:28:44;;;;;;;7.22;5.78;;;17.20;98.10;;;;;;5035436;28;20081;-82
2021/08/21 05:31:10;;;;;;;8.00;6.20;;;17.30;97.90;;;;;;5019087;28;20504;-81
2021/08/21 05:33:35;;;;;;;7.00;5.38;;;17.30;97.90;;;;;;5015589;28;20390;-81
2021/08/21 05:36:01;;;;;;;7.38;5.97;;;17.30;97.80;;;;;;5018913;28;20033;-81
2021/08/21 05:38:27;;;;;;;8.10;6.38;;;17.30;97.80;;;;;;5018880;28;20032;-81
2021/08/21 05:40:52;;;;;;;6.57;5.43;;;17.30;97.90;;;;;;5035402;28;20032;-81
2021/08/21 05:43:18;;;;;;;7.28;5.43;;;17.30;97.90;;;;;;5015842;28;20036;-81
2021/08/21 05:45:44;;;;;;;8.30;6.38;;;17.30;97.90;;;;;;5016813;28;20467;-82
2021/08/21 05:48:09;;;;;;;7.22;5.60;;;17.30;97.80;;;;;;5053006;28;20025;-82
2021/08/21 05:50:35;;;;;;;6.72;5.45;;;17.30;97.80;;;;;;5018765;28;20056;-81
2021/08/21 05:53:01;;;;;;;6.93;5.55;;;17.30;97.80;;;;;;5032312;28;20032;-82
2021/08/21 05:55:27;;;;;;;6.22;5.07;;;17.40;97.90;;;;;;5035428;28;20107;-81
2021/08/21 05:57:55;;;;;;;7.43;6.18;;;17.40;97.90;;;;;;5015256;28;20029;-82
2021/08/21 06:00:21;;;;;;;7.45;5.80;;;17.40;97.90;;;;;;5023750;28;20387;-82
2021/08/21 06:02:46;;;;;;;7.90;5.95;;;17.40;97.90;;;;;;5032222;28;20017;-82
2021/08/21 06:05:12;;;;;;;8.15;6.30;;;17.40;97.90;;;;;;5018495;28;20040;-82
2021/08/21 06:07:41;;;;;;;8.07;6.93;;;17.40;98.00;;;;;;5035737;28;20488;-81
2021/08/21 06:10:08;;;;;;;8.90;6.38;;;17.40;98.00;;;;;;5034654;28;20535;-82
2021/08/21 06:12:35;;;;;;;9.20;6.75;;;17.40;98.00;;;;;;5045598;28;20607;-81
2021/08/21 06:15:00;;;;;;;9.27;7.07;;;17.50;98.00;;;;;;5034479;28;20021;-82
2021/08/21 06:17:26;;;;;;;10.40;6.75;;;17.50;98.00;;;;;;5018222;28;20028;-82
2021/08/21 06:19:52;;;;;;;9.43;6.78;;;17.50;98.10;;;;;;5034488;28;20493;-81
2021/08/21 06:22:17;;;;;;;9.90;7.28;;;17.50;98.00;;;;;;5034534;28;20032;-82
2021/08/21 06:24:43;;;;;;;10.25;7.65;;;17.50;98.00;;;;;;5001062;28;20036;-82
2021/08/21 06:27:09;;;;;;;11.98;7.32;;;17.60;98.10;;;;;;5034453;28;20029;-82
2021/08/21 06:29:36;;;;;;;10.25;7.90;;;17.60;98.10;;;;;;5034186;28;20026;-81
2021/08/21 06:32:05;;;;;;;12.00;8.32;;;17.60;98.10;;;;;;5037973;28;20029;-81
2021/08/21 06:34:31;;;;;;;13.20;9.27;;;17.60;98.20;;;;;;5017758;28;20019;-81
2021/08/21 06:36:57;;;;;;;12.93;9.45;;;17.60;98.20;;;;;;5034322;28;20104;-82
2021/08/21 06:39:23;;;;;;;13.77;9.90;;;17.60;98.20;;;;;;5024432;28;20475;-81
2021/08/21 06:41:49;;;;;;;12.02;8.70;;;17.60;98.20;;;;;;5032290;28;20041;-81
2021/08/21 06:44:15;;;;;;;13.88;9.02;;;17.60;98.20;;;;;;5034861;28;20102;-81
2021/08/21 06:46:41;;;;;;;11.15;8.63;;;17.70;98.20;;;;;;5012293;28;20420;-81
2021/08/21 06:49:06;;;;;;;11.05;8.63;;;17.70;98.20;;;;;;5046928;28;20074;-81
2021/08/21 06:51:32;;;;;;;11.18;7.85;;;17.70;98.20;;;;;;5019747;28;20045;-82
2021/08/21 06:53:57;;;;;;;12.63;9.02;;;17.80;98.20;;;;;;5023704;28;20024;-81
2021/08/21 06:56:23;;;;;;;13.30;10.20;;;17.80;98.20;;;;;;5018157;28;20470;-81
2021/08/21 06:58:49;;;;;;;13.05;10.13;;;17.80;98.30;;;;;;5015723;28;20455;-81
2021/08/21 07:01:14;;;;;;;12.85;9.85;;;17.80;98.30;;;;;;5002355;28;20035;-81
2021/08/21 07:03:40;;;;;;;11.20;8.27;;;17.90;98.30;;;;;;5013201;28;20398;-81
2021/08/21 07:06:06;;;;;;;11.48;8.45;;;17.90;98.20;;;;;;5030500;28;20033;-81
2021/08/21 07:08:32;;;;;;;10.98;8.43;;;17.90;98.30;;;;;;5041087;28;20021;-81
2021/08/21 07:10:58;;;;;;;12.38;9.27;;;17.90;98.20;;;;;;5014681;28;20489;-81
2021/08/21 07:13:26;;;;;;;11.60;8.55;;;18.00;98.30;;;;;;5014730;28;20025;-81
2021/08/21 07:15:52;;;;;;;11.45;8.50;;;18.00;98.30;;;;;;5014976;28;20126;-82
2021/08/21 07:18:18;;;;;;;12.55;9.10;;;18.00;98.30;;;;;;5020757;28;20489;-84
2021/08/21 07:20:44;;;;;;;11.43;9.02;;;18.00;98.30;;;;;;5052183;28;20020;-84
2021/08/21 07:23:10;;;;;;;13.48;10.98;;;18.10;98.20;;;;;;5034390;28;20045;-84
2021/08/21 07:25:36;;;;;;;16.02;12.10;;;18.10;98.30;;;;;;5036445;28;20041;-84
2021/08/21 07:28:02;;;;;;;15.10;11.20;;;18.10;98.30;;;;;;5020485;28;20033;-84
2021/08/21 07:30:27;;;;;;;15.45;11.35;;;18.20;98.30;;;;;;5033707;28;20021;-84
2021/08/21 07:32:53;;;;;;;13.73;9.63;;;18.20;98.30;;;;;;5017557;28;20053;-84
2021/08/21 07:35:19;;;;;;;13.63;10.30;;;18.30;98.30;;;;;;5034624;28;20352;-84
2021/08/21 07:37:45;;;;;;;13.55;10.02;;;18.30;98.30;;;;;;5018295;28;20025;-82
2021/08/21 07:40:11;;;;;;;13.13;10.40;;;18.30;98.30;;;;;;5033260;28;20024;-83
2021/08/21 07:42:37;;;;;;;14.30;10.57;;;18.40;98.30;;;;;;5013419;28;20471;-83
2021/08/21 07:45:04;;;;;;;14.60;10.38;;;18.40;98.30;;;;;;5033166;28;20382;-83
2021/08/21 07:47:30;;;;;;;13.15;9.82;;;18.40;98.30;;;;;;5030989;28;20048;-82
2021/08/21 07:49:55;;;;;;;13.10;9.77;;;18.40;98.30;;;;;;5033071;28;20439;-82
2021/08/21 07:52:27;;;;;;;14.35;9.52;;;18.50;98.30;;;;;;5055943;28;20049;-82
2021/08/21 07:54:53;;;;;;;13.18;9.35;;;18.50;98.30;;;;;;5021051;28;20094;-80
2021/08/21 07:57:19;;;;;;;14.00;10.15;;;18.50;98.30;;;;;;5037197;28;20021;-79
2021/08/21 07:59:45;;;;;;;13.63;10.70;;;18.60;98.30;;;;;;5054883;28;20086;-80
2021/08/21 08:02:10;;;;;;;12.80;9.82;;;18.60;98.30;;;;;;5036787;28;20041;-79
2021/08/21 08:04:36;;;;;;;13.07;10.32;;;18.70;98.40;;;;;;5054249;28;20063;-79
2021/08/21 08:07:02;;;;;;;16.40;10.70;;;18.70;98.40;;;;;;5054174;28;20029;-78
2021/08/21 08:09:28;;;;;;;15.25;11.13;;;18.80;98.40;;;;;;5036051;28;20120;-79
2021/08/21 08:11:55;;;;;;;14.68;11.18;;;18.80;98.40;;;;;;5054029;28;20028;-79
2021/08/21 08:14:20;;;;;;;15.30;11.43;;;18.90;98.40;;;;;;5035043;28;20048;-79
2021/08/21 08:16:46;;;;;;;16.95;10.13;;;18.90;98.40;;;;;;5001924;28;20155;-79
2021/08/21 08:19:12;;;;;;;15.93;12.10;;;19.00;98.30;;;;;;5032652;28;20018;-79
2021/08/21 08:21:38;;;;;;;17.83;13.55;;;19.00;98.30;;;;;;5037096;28;20025;-78
2021/08/21 08:24:03;;;;;;;19.88;14.30;;;19.10;98.30;;;;;;5020019;28;20390;-79
2021/08/21 08:26:29;;;;;;;16.38;12.05;;;19.10;98.30;;;;;;5054080;28;20029;-78
2021/08/21 08:28:55;;;;;;;17.90;14.27;;;19.20;98.30;;;;;;5016292;28;20030;-78
2021/08/21 08:31:20;;;;;;;20.98;13.07;;;19.20;98.50;;;;;;5031090;28;20083;-78
2021/08/21 08:33:46;;;;;;;17.58;13.65;;;19.30;98.20;;;;;;5036059;28;20074;-78
2021/08/21 08:36:12;;;;;;;16.92;12.65;;;19.30;98.10;;;;;;5054051;28;20036;-78
2021/08/21 08:38:37;;;;;;;15.60;12.93;;;19.40;98.10;;;;;;5015703;28;20438;-78
2021/08/21 08:41:05;;;;;;;15.38;11.85;;;19.40;98.00;;;;;;5027257;28;20029;-78
2021/08/21 08:43:31;;;;;;;20.73;15.23;;;19.40;98.00;;;;;;5035839;28;20370;-78
2021/08/21 08:45:57;;;;;;;17.92;14.55;;;19.50;98.10;;;;;;5034624;28;20028;-78
2021/08/21 08:48:23;;;;;;;17.70;13.40;;;19.50;98.00;;;;;;5019353;28;20029;-78
2021/08/21 08:50:48;;;;;;;18.25;12.20;;;19.60;98.00;;;;;;5035754;28;20101;-79
2021/08/21 08:53:14;;;;;;;19.58;14.32;;;19.60;97.90;;;;;;5002984;28;20029;-79
2021/08/21 08:55:40;;;;;;;21.27;15.27;;;19.70;97.90;;;;;;5035489;28;20489;-79
2021/08/21 08:58:07;;;;;;;16.27;13.57;;;19.70;97.80;;;;;;5035883;28;20540;-81
2021/08/21 09:00:33;;;;;;;19.15;15.05;;;19.80;97.80;;;;;;5035623;28;20033;-82
2021/08/21 09:03:00;;;;;;;19.23;16.10;;;19.80;97.60;;;;;;5053720;28;20029;-81
2021/08/21 09:05:36;;;;;;;20.60;14.68;;;19.90;97.50;;;;;;5019352;28;20037;-82
2021/08/21 09:08:02;;;;;;;15.93;12.25;;;19.90;97.50;;;;;;5035660;28;20382;-81
2021/08/21 09:10:30;;;;;;;14.15;11.20;;;20.00;97.80;;;;;;5053389;28;20044;-81
2021/08/21 09:13:18;;;;;;;14.38;11.20;;;20.00;97.40;;;;;;5035386;28;20104;-81
2021/08/21 09:15:58;;;;;;;14.23;10.82;;;20.10;97.50;;;;;;5053605;28;20029;-81
2021/08/21 09:18:25;;;;;;;14.98;10.52;;;20.10;97.40;;;;;;5040949;28;20024;-81
2021/08/21 09:20:57;;;;;;;15.10;10.48;;;20.10;97.40;;;;;;5049694;28;20024;-82
2021/08/21 09:23:39;;;;;;;16.85;12.82;;;20.20;97.40;;;;;;5050670;28;20139;-81
2021/08/21 09:26:36;;;;;;;15.48;12.10;;;20.30;97.50;;;;;;5049520;28;20389;-78
2021/08/21 09:29:03;;;;;;;15.25;11.63;;;20.30;97.40;;;;;;5037499;28;20163;-78
2021/08/21 09:31:36;;;;;;;12.57;9.90;;;20.40;97.40;;;;;;5051590;28;20095;-78
2021/08/21 09:34:05;;;;;;;13.25;10.27;;;20.40;97.40;;;;;;5053106;28;20021;-79
2021/08/21 09:36:35;;;;;;;14.38;10.98;;;20.50;97.20;;;;;;5055166;28;20062;-79
2021/08/21 09:39:07;;;;;;;16.02;12.15;;;20.50;97.10;;;;;;5073179;28;20035;-79
2021/08/21 09:41:58;;;;;;;14.90;10.95;;;20.60;97.00;;;;;;5058442;28;20021;-78
2021/08/21 09:44:33;;;;;;;10.57;9.18;;;20.70;96.50;;;;;;5051342;28;20470;-78
2021/08/21 09:47:26;;;;;;;15.85;11.85;;;20.70;96.70;;;;;;5052778;28;20115;-78
2021/08/21 09:50:17;;;;;;;11.35;8.73;;;20.80;96.30;;;;;;5042072;28;20029;-78
2021/08/21 09:52:47;;;;;;;14.63;11.55;;;20.90;96.40;;;;;;5026260;28;20040;-79
2021/08/21 09:55:16;;;;;;;13.00;11.00;;;21.00;95.60;;;;;;5026949;28;20112;-78
2021/08/21 09:57:42;;;;;;;11.23;9.05;;;21.10;95.50;;;;;;5015214;28;20090;-79
2021/08/21 10:00:08;;;;;;;11.35;9.13;;;21.10;95.50;;;;;;5025057;28;20123;-78
2021/08/21 10:02:34;;;;;;;9.77;7.93;;;21.20;95.70;;;;;;5033492;28;20017;-79
2021/08/21 10:05:01;;;;;;;11.65;8.75;;;21.30;95.80;;;;;;5051300;28;20381;-78
2021/08/21 10:07:40;;;;;;;11.73;8.73;;;21.40;95.10;;;;;;5037366;28;20021;-79
2021/08/21 10:10:11;;;;;;;10.65;8.13;;;21.40;95.30;;;;;;5061606;28;20140;-78
2021/08/21 10:12:45;;;;;;;8.55;7.00;;;21.50;95.10;;;;;;5035524;28;20100;-79
2021/08/21 10:15:13;;;;;;;8.57;6.82;;;21.60;95.20;;;;;;5054088;28;20070;-79
2021/08/21 10:17:41;;;;;;;10.27;7.75;;;21.70;95.30;;;;;;5037304;28;20111;-78
2021/08/21 10:20:08;;;;;;;10.45;7.40;;;21.70;94.20;;;;;;5054561;28;20038;-78
2021/08/21 10:22:34;;;;;;;9.27;6.57;;;21.80;94.90;;;;;;5072196;28;20032;-79
2021/08/21 10:25:05;;;;;;;10.13;7.05;;;21.90;95.00;;;;;;5046681;28;20027;-79
2021/08/21 10:27:35;;;;;;;;;;;21.90;94.80;;;;;;5052379;28;20017;-79
2021/08/21 10:30:08;;;;;;;9.00;6.10;;;22.00;94.80;;;;;;5052448;28;19923;-79
2021/08/21 10:32:36;;;;;;;8.15;5.72;;;22.10;94.80;;;;;;5034658;28;20021;-79
2021/08/21 10:35:06;;;;;;;8.38;5.70;;;22.20;93.80;;;;;;5052886;28;20563;-79
2021/08/21 10:37:36;;;;;;;7.97;5.30;;;22.20;93.00;;;;;;4994992;28;20060;-79
2021/08/21 10:40:25;;;;;;;6.90;5.15;;;22.30;93.80;;;;;;5019723;28;20272;-79
2021/08/21 10:42:55;;;;;;;7.25;4.40;;;22.40;93.90;;;;;;5028433;28;20056;-80
2021/08/21 10:45:39;;;;;;;6.03;4.70;;;22.40;93.70;;;;;;5036467;28;20029;-78
2021/08/21 10:48:13;;;;;;;6.63;3.58;;;22.50;92.00;;;;;;5029160;28;20509;-78
2021/08/21 10:50:45;;;;;;;5.63;2.92;;;22.50;91.60;;;;;;5052393;23;20029;-79
2021/08/21 10:53:30;;;;;;;4.10;2.40;;;22.60;91.40;;;;;;5071487;28;20033;-80
2021/08/21 10:55:58;;;;;;;5.35;3.03;;;22.70;91.20;;;;;;5051910;28;20524;-80
2021/08/21 10:58:28;;;;;;;6.18;3.28;;;22.80;91.70;;;;;;5070244;28;20043;-79
2021/08/21 11:01:01;;;;;;;4.78;3.08;;;22.80;90.20;;;;;;5053734;28;20020;-80
2021/08/21 11:03:29;;;;;;;5.60;3.45;;;22.90;89.90;;;;;;5065998;28;20365;-80
2021/08/21 11:05:56;;;;;;;6.00;3.90;;;23.00;89.30;;;;;;5058582;28;20049;-80
2021/08/21 11:08:27;;;;;;;6.72;4.28;;;23.00;89.60;;;;;;5070532;28;20496;-80
2021/08/21 11:11:19;;;;;;;7.20;3.85;;;23.10;89.50;;;;;;5053282;28;20024;-80
2021/08/21 11:14:02;;;;;;;5.53;3.28;;;23.20;90.10;;;;;;5071552;28;20043;-79
2021/08/21 11:17:00;;;;;;;5.88;4.00;;;23.30;90.40;;;;;;5071173;28;20013;-79
2021/08/21 11:19:36;;;;;;;5.22;3.10;;;23.40;89.50;;;;;;5071548;28;20424;-79
2021/08/21 11:22:21;;;;;;;4.25;2.70;;;23.50;90.00;;;;;;5069696;28;20063;-79
2021/08/21 11:24:52;;;;;;;4.82;3.00;;;23.50;89.80;;;;;;5071976;28;20413;-79
2021/08/21 11:27:24;;;;;;;5.60;3.13;;;23.60;87.80;;;;;;5073306;28;20496;-80
2021/08/21 11:30:09;;;;;;;3.53;2.50;;;23.60;86.80;;;;;;5064581;28;20113;-79
2021/08/21 11:33:20;;;;;;;4.13;2.75;;;23.70;87.00;;;;;;5062102;28;20013;-79
2021/08/21 11:35:51;;;;;;;3.55;2.25;;;23.80;87.70;;;;;;5049756;28;20104;-80
2021/08/21 11:38:26;;;;;;;6.82;3.92;;;23.90;88.10;;;;;;5073563;28;20079;-80
2021/08/21 11:40:53;;;;;;;4.75;3.20;;;23.90;85.30;;;;;;5049597;28;20493;-80
2021/08/21 11:43:27;;;;;;;6.38;3.60;;;23.90;85.30;;;;;;5056498;28;20017;-80
2021/08/21 11:45:54;;;;;;;4.65;2.47;;;24.00;83.50;;;;;;5086894;28;20536;-80
2021/08/21 11:48:25;;;;;;;4.13;2.80;;;24.10;85.50;;;;;;5081703;28;20028;-80
2021/08/21 11:50:50;;;;;;;5.43;2.95;;;24.20;86.40;;;;;;5054746;28;20080;-80
2021/08/21 11:53:20;;;;;;;5.57;3.30;;;24.30;86.60;;;;;;5072949;28;20060;-80
2021/08/21 11:55:47;;;;;;;6.03;3.60;;;24.30;86.60;;;;;;5066157;28;20016;-79
2021/08/21 11:58:13;;;;;;;6.07;4.28;;;24.40;86.40;;;;;;5068622;28;20322;-79
2021/08/21 12:00:42;;;;;;;4.13;3.17;;;24.50;85.90;;;;;;5068721;28;20040;-79
2021/08/21 12:03:10;;;;;;;4.85;3.08;;;24.50;84.90;;;;;;5054819;28;20063;-79
2021/08/21 12:05:41;;;;;;;4.90;3.08;;;24.50;84.50;;;;;;5054889;28;20020;-79
2021/08/21 12:08:17;;;;;;;4.88;2.95;;;24.50;83.60;;;;;;5054812;28;20033;-80
2021/08/21 12:10:51;;;;;;;4.63;2.83;;;24.50;84.00;;;;;;5047524;28;20132;-80
2021/08/21 12:13:23;;;;;;;4.18;2.58;;;24.50;84.60;;;;;;5068837;28;20031;-79
2021/08/21 12:15:49;;;;;;;5.28;2.58;;;24.50;84.00;;;;;;5078818;28;20036;-79
2021/08/21 12:18:16;;;;;;;6.50;3.13;;;24.50;84.10;;;;;;5074311;28;20032;-79
2021/08/21 12:20:42;;;;;;;6.43;3.30;;;24.50;84.90;;;;;;5074352;28;20058;-79
2021/08/21 12:23:11;;;;;;;4.43;2.95;;;24.50;83.60;;;;;;5074557;28;20402;-80
2021/08/21 12:25:47;;;;;;;5.18;3.17;;;24.50;83.60;;;;;;5053044;28;20025;-80
2021/08/21 12:28:15;;;;;;;5.00;2.80;;;24.50;83.70;;;;;;5073015;28;20028;-79
2021/08/21 12:30:51;;;;;;;9.00;3.47;;;24.50;83.70;;;;;;5056286;28;20048;-79
2021/08/21 12:33:17;;;;;;;4.75;2.80;;;24.60;83.10;;;;;;5055502;28;20052;-78
2021/08/21 12:35:43;;;;;;;4.65;2.75;;;24.60;83.50;;;;;;5037842;28;20056;-79
2021/08/21 12:38:08;;;;;;;4.53;3.15;;;24.60;84.10;;;;;;5037886;28;20024;-79
2021/08/21 12:40:35;;;;;;;5.28;3.08;;;24.70;84.80;;;;;;5066178;28;20044;-81
2021/08/21 12:43:06;;;;;;;5.60;3.35;;;24.70;85.00;;;;;;5014341;28;20021;-81
2021/08/21 12:45:42;;;;;;;5.60;3.38;;;24.80;85.80;;;;;;5056166;28;20029;-81
2021/08/21 12:48:09;;;;;;;5.25;3.28;;;24.80;85.60;;;;;;5057470;28;20469;-81
2021/08/21 12:50:42;;;;;;;4.25;3.00;;;24.90;85.60;;;;;;5072298;28;20090;-81